Capitol Logistics 369


PHNL
Daniel K Inouye International Airport
Honolulu, Hawaii, US
KRIV
March Air Reserve Base
Riverside, California, US

Activity Log

Date Flight Route Aircraft Duration
02/06/2019 CPX369 MKK4 FITES R578 FICKY ROSIN MALIT OCN B763 5h 07m

Route Details

Aircraft Information
Primary: Boeing 767-300BDSF
Backup: Not Available
Route Data
Distance: 2277nm
Sched. Duration: 5h 00m
Avg. Duration: 5h 07m (+7m)
Times Flown: 1
Recm'd Route: MKK4 FITES R578 FICKY ROSIN MALIT OCN
Planned Altitude: 37,000ft
Origin Wx: PHNL 251253Z 35004KT 10SM FEW025 22/21 A2993 RMK AO2 SLP134 T02220206 $
Dest. Wx: KRIV 251258Z 31003KT 10SM VCSH SCT010 BKN020 BKN044 15/13 A2993 RMK AO2A SLP128 T01480127
Notes:

Financial History
Total Freight: 116,000lbs
Average Load: 116,000lbs/flt
Fuel Used: 60,081lbs
Avg. Fuel Used: 60,081lbs/flt
Fuel Expense: $44,460
Avg. Fuel Expense: $44,460
Avg. Fuel Cost: $0.74/lbs
Total Gross Income: $143,840
Pilot Pay: $229
Total Expenses: $15,587
Total Revenue: $82,571
Average Revenue: $143,840.00